createdAt,value
2022-09-09T00:00:10.270Z,985.1
2022-09-09T00:04:15.809Z,985.2
2022-09-09T00:08:32.321Z,985.2
2022-09-09T00:12:43.371Z,985.1
2022-09-09T00:18:02.590Z,985.1
2022-09-09T00:23:21.580Z,985.2
2022-09-09T00:28:50.809Z,985.1
2022-09-09T00:33:59.695Z,985.1
2022-09-09T00:39:18.619Z,985.1
2022-09-09T00:44:37.830Z,985.1
2022-09-09T00:50:07.420Z,985.1
2022-09-09T00:55:16.449Z,985.1
2022-09-09T01:03:49.511Z,985.1
2022-09-09T01:12:22.573Z,985
2022-09-09T01:16:33.738Z,985
2022-09-09T01:21:52.566Z,985.1
2022-09-09T01:34:42.178Z,985.1
2022-09-09T01:38:58.667Z,985.1
2022-09-09T01:43:15.221Z,985.1
2022-09-09T01:48:29.148Z,985.1
2022-09-09T01:53:48.754Z,985.1
2022-09-09T01:59:08.149Z,985
2022-09-09T02:04:27.330Z,985
2022-09-09T02:09:46.594Z,985
2022-09-09T02:15:05.838Z,985
2022-09-09T02:23:38.913Z,985
2022-09-09T02:27:55.394Z,984.9
2022-09-09T02:36:23.577Z,985
2022-09-09T02:41:42.924Z,985
2022-09-09T02:47:02.389Z,984.9
2022-09-09T02:52:21.174Z,984.9
2022-09-09T03:01:56.595Z,984.9
2022-09-09T03:13:36.830Z,984.8
2022-09-09T03:18:56.084Z,984.8
2022-09-09T03:24:14.856Z,984.6
2022-09-09T03:29:46.390Z,984.6
2022-09-09T03:34:53.993Z,984.7
2022-09-09T03:40:24.167Z,984.7
2022-09-09T03:45:32.090Z,984.6
2022-09-09T03:50:51.063Z,984.6
2022-09-09T03:56:10.779Z,984.9
2022-09-09T04:01:30.498Z,984.9
2022-09-09T04:06:49.482Z,984.9
2022-09-09T04:12:09.182Z,984.9
2022-09-09T04:17:28.899Z,984.8
2022-09-09T04:28:07.222Z,984.8
2022-09-09T04:33:26.506Z,984.8
2022-09-09T04:38:45.902Z,984.8
2022-09-09T04:47:18.956Z,984.9
2022-09-09T04:49:24.422Z,984.9
2022-09-09T04:54:43.199Z,984.9
2022-09-09T05:00:02.447Z,985
2022-09-09T05:05:21.230Z,985.1
2022-09-09T05:10:52.926Z,985.1
2022-09-09T05:16:00.113Z,985.2
2022-09-09T05:21:18.913Z,985.2
2022-09-09T05:26:38.315Z,985.3
2022-09-09T05:31:57.633Z,985.3
2022-09-09T05:37:16.476Z,985.4
2022-09-09T05:42:46.968Z,985.4
2022-09-09T05:51:08.992Z,985.4
2022-09-09T05:53:14.189Z,985.5
2022-09-09T06:03:52.653Z,985.5
2022-09-09T06:09:11.552Z,985.5
2022-09-09T06:14:30.462Z,985.4
2022-09-09T06:19:49.469Z,985.4
2022-09-09T06:25:08.782Z,985.4
2022-09-09T06:30:27.622Z,985.5
2022-09-09T06:35:46.610Z,985.4
2022-09-09T06:41:05.665Z,985.4
2022-09-09T06:46:24.678Z,985.5
2022-09-09T06:51:43.395Z,985.5
2022-09-09T06:57:15.619Z,985.5
2022-09-09T07:02:22.109Z,985.4
2022-09-09T07:07:51.901Z,985.4
2022-09-09T07:13:00.215Z,985.4
2022-09-09T07:18:19.019Z,985.3
2022-09-09T07:23:38.277Z,985.3
2022-09-09T07:28:57.642Z,985.3
2022-09-09T07:34:16.853Z,985.3
2022-09-09T07:39:35.757Z,985.3
2022-09-09T07:45:05.752Z,985.4
2022-09-09T07:50:14.144Z,985.3
2022-09-09T07:55:33.035Z,985.4
2022-09-09T08:00:52.277Z,985.4
2022-09-09T08:06:11.225Z,985.4
2022-09-09T08:11:32.430Z,985.4
2022-09-09T08:20:03.703Z,985.5
2022-09-09T08:22:09.070Z,985.5
2022-09-09T08:32:47.211Z,985.6
2022-09-09T08:38:10.243Z,985.6
2022-09-09T08:43:25.184Z,985.6
2022-09-09T08:48:44.606Z,985.6
2022-09-09T08:54:03.651Z,985.5
2022-09-09T08:59:33.414Z,985.6
2022-09-09T09:07:55.417Z,985.6
2022-09-09T09:12:11.980Z,985.6
2022-09-09T09:15:20.360Z,985.5
2022-09-09T09:20:39.578Z,985.5
2022-09-09T09:26:10.515Z,985.6
2022-09-09T09:34:31.568Z,985.5
2022-09-09T09:47:14.221Z,985.4
2022-09-09T09:52:33.122Z,985.4
2022-09-09T10:03:11.816Z,985.3
2022-09-09T10:08:31.354Z,985.3
2022-09-09T10:13:50.215Z,985.2
2022-09-09T10:19:09.659Z,985.2
2022-09-09T10:24:29.193Z,985.1
2022-09-09T10:29:58.423Z,985.2
2022-09-09T10:35:07.996Z,985.3
2022-09-09T10:43:41.082Z,985.3
2022-09-09T10:47:57.588Z,985.3
2022-09-09T10:56:30.633Z,985.7
2022-09-09T11:01:42.004Z,986
2022-09-09T11:08:40.559Z,985.8
2022-09-09T11:17:40.114Z,985.8
2022-09-09T11:23:10.116Z,985.8
2022-09-09T11:31:32.229Z,985.7
2022-09-09T11:35:48.725Z,985.6
2022-09-09T11:44:15.217Z,985.6
2022-09-09T11:49:34.346Z,985.6
2022-09-09T11:54:53.743Z,985.6
2022-09-09T12:00:12.997Z,985.4
2022-09-09T12:05:32.058Z,985.5
2022-09-09T12:14:05.135Z,985.4
2022-09-09T12:22:38.191Z,985.3
2022-09-09T12:32:18.266Z,985.2
2022-09-09T12:37:26.702Z,985.2
2022-09-09T12:42:46.109Z,985.1
2022-09-09T12:48:03.998Z,985
2022-09-09T12:53:26.120Z,985
2022-09-09T12:58:41.747Z,985.1
2022-09-09T13:05:15.882Z,985
2022-09-09T13:09:21.421Z,985
2022-09-09T13:14:51.936Z,985
2022-09-09T13:20:00.395Z,985.1
2022-09-09T13:25:18.536Z,985.1
2022-09-09T13:32:17.127Z,985
2022-09-09T13:42:55.532Z,985
2022-09-09T13:46:36.211Z,985
2022-09-09T13:51:55.180Z,984.9
2022-09-09T13:57:25.970Z,984.9
2022-09-09T14:05:47.046Z,984.9
2022-09-09T14:10:03.557Z,984.9
2022-09-09T14:18:31.059Z,984.6
2022-09-09T14:23:49.843Z,984.6
2022-09-09T14:32:22.887Z,984.5
2022-09-09T14:45:05.609Z,984.6
2022-09-09T14:50:24.459Z,984.7
2022-09-09T14:55:44.019Z,985.1
2022-09-09T15:01:02.781Z,985.3
2022-09-09T15:06:21.833Z,985.3
2022-09-09T15:14:54.838Z,985.2
2022-09-09T15:23:27.954Z,985.2
2022-09-09T15:32:58.644Z,985.1
2022-09-09T15:41:31.695Z,985.1
2022-09-09T15:50:04.767Z,985.1
2022-09-09T15:54:13.612Z,985
2022-09-09T15:59:33.509Z,984.9
2022-09-09T16:12:02.845Z,985
2022-09-09T16:16:08.205Z,985
2022-09-09T16:21:27.018Z,985
2022-09-09T16:26:46.381Z,985.1
2022-09-09T16:32:04.760Z,985.2
2022-09-09T16:37:23.714Z,985.2
2022-09-09T16:42:51.674Z,985.2
2022-09-09T16:48:01.802Z,985.2
2022-09-09T16:53:20.639Z,985.3
2022-09-09T16:58:40.892Z,985.2
2022-09-09T17:05:15.102Z,985.3
2022-09-09T17:09:20.889Z,985.4
2022-09-09T17:14:38.679Z,985.4
2022-09-09T17:19:57.626Z,985.5
2022-09-09T17:25:16.430Z,985.5
2022-09-09T17:30:43.996Z,985.5
2022-09-09T17:35:54.463Z,985.6
2022-09-09T17:42:28.618Z,985.6
2022-09-09T17:46:44.093Z,985.6
2022-09-09T17:57:13.126Z,985.7
2022-09-09T18:14:19.231Z,985.7
2022-09-09T18:23:48.692Z,985.7
2022-09-09T18:29:06.357Z,985.8
2022-09-09T18:34:25.447Z,985.9
2022-09-09T18:39:44.190Z,986
2022-09-09T18:45:11.355Z,986
2022-09-09T18:50:22.362Z,986
2022-09-09T18:55:41.390Z,986.2
2022-09-09T19:01:01.785Z,986.3
2022-09-09T19:06:30.179Z,986.3
2022-09-09T19:11:39.316Z,986.4
2022-09-09T19:16:59.466Z,986.5
2022-09-09T19:22:18.321Z,986.6
2022-09-09T19:27:36.675Z,986.6
2022-09-09T19:32:56.687Z,986.7
2022-09-09T19:39:30.820Z,986.7
2022-09-09T19:43:36.827Z,986.7
2022-09-09T19:48:55.420Z,986.6
2022-09-09T19:54:14.387Z,986.7
2022-09-09T20:02:58.102Z,986.8
2022-09-09T20:15:30.464Z,986.7
2022-09-09T20:24:03.532Z,986.7
2022-09-09T20:32:36.567Z,986.8
2022-09-09T20:36:51.971Z,986.8
2022-09-09T20:42:04.342Z,986.8
2022-09-09T20:47:23.341Z,987
2022-09-09T20:53:51.188Z,987
2022-09-09T20:58:01.999Z,987
2022-09-09T21:03:20.700Z,987
2022-09-09T21:08:39.914Z,987
2022-09-09T21:13:59.438Z,987
2022-09-09T21:20:58.027Z,987.1
2022-09-09T21:29:58.096Z,987
2022-09-09T21:35:16.983Z,987
2022-09-09T21:40:36.701Z,986.9
2022-09-09T21:45:56.255Z,986.9
2022-09-09T21:51:15.211Z,986.9
2022-09-09T21:56:34.377Z,987
2022-09-09T22:01:53.536Z,987.1
2022-09-09T22:10:26.533Z,987.1
2022-09-09T22:17:49.634Z,987.1
2022-09-09T22:23:08.381Z,987
2022-09-09T22:28:27.184Z,987
2022-09-09T22:33:45.931Z,987
2022-09-09T22:39:05.306Z,987.1
2022-09-09T22:44:24.065Z,987.1
2022-09-09T22:50:58.219Z,987.2
2022-09-09T22:55:03.286Z,987.1
2022-09-09T23:00:22.898Z,987
2022-09-09T23:05:41.603Z,987
2022-09-09T23:11:00.941Z,987
2022-09-09T23:16:19.991Z,987.1
2022-09-09T23:21:39.693Z,987.1
2022-09-09T23:30:45.148Z,987.1
2022-09-09T23:32:18.167Z,987.2
2022-09-09T23:37:36.951Z,987.2
2022-09-09T23:42:57.393Z,987.1
2022-09-09T23:51:29.454Z,987.1
2022-09-09T23:55:46.028Z,987
